createdAt,value
2022-12-12T00:01:33.005Z,9.25
2022-12-12T00:04:01.434Z,10.23
2022-12-12T00:06:30.223Z,9.82
2022-12-12T00:08:58.112Z,9.32
2022-12-12T00:11:27.572Z,8.30
2022-12-12T00:13:56.588Z,9.30
2022-12-12T00:16:26.704Z,8.38
2022-12-12T00:18:55.197Z,9.20
2022-12-12T00:21:26.852Z,8.73
2022-12-12T00:23:56.153Z,8.88
2022-12-12T00:26:28.382Z,8.55
2022-12-12T00:28:58.090Z,9.43
2022-12-12T00:31:27.604Z,8.82
2022-12-12T00:33:55.986Z,8.93
2022-12-12T00:36:27.002Z,8.45
2022-12-12T00:38:55.832Z,8.10
2022-12-12T00:41:24.949Z,7.80
2022-12-12T00:43:52.907Z,9.73
2022-12-12T00:46:24.419Z,9.15
2022-12-12T00:48:58.134Z,8.63
2022-12-12T00:51:28.096Z,8.07
2022-12-12T00:53:58.408Z,9.38
2022-12-12T00:56:29.095Z,9.80
2022-12-12T00:58:56.951Z,8.25
2022-12-12T01:01:29.995Z,8.05
2022-12-12T01:03:59.286Z,8.68
2022-12-12T01:06:28.497Z,7.78
2022-12-12T01:08:56.584Z,8.13
2022-12-12T01:11:24.942Z,8.15
2022-12-12T01:13:54.345Z,8.95
2022-12-12T01:16:23.608Z,8.05
2022-12-12T01:18:51.766Z,8.45
2022-12-12T01:21:21.372Z,9.13
2022-12-12T01:23:49.981Z,9.55
2022-12-12T01:26:21.652Z,10.40
2022-12-12T01:28:49.637Z,8.65
2022-12-12T01:31:20.237Z,9.00
2022-12-12T01:33:48.272Z,9.60
2022-12-12T01:36:19.322Z,9.90
2022-12-12T01:38:48.776Z,8.73
2022-12-12T01:41:19.217Z,10.20
2022-12-12T01:43:47.591Z,10.18
2022-12-12T01:46:37.785Z,10.57
2022-12-12T01:49:09.546Z,9.20
2022-12-12T01:51:40.363Z,11.25
2022-12-12T01:54:12.023Z,10.65
2022-12-12T01:56:42.803Z,10.75
2022-12-12T01:59:14.455Z,10.52
2022-12-12T02:01:43.275Z,10.88
2022-12-12T02:04:13.132Z,10.45
2022-12-12T02:06:43.572Z,10.25
2022-12-12T02:09:14.281Z,9.18
2022-12-12T02:11:46.571Z,10.13
2022-12-12T02:14:19.020Z,9.70
2022-12-12T02:17:05.210Z,10.23
2022-12-12T02:19:38.874Z,8.55
2022-12-12T02:22:26.020Z,7.57
2022-12-12T02:25:29.273Z,7.05
2022-12-12T02:28:03.414Z,5.10
2022-12-12T02:33:48.856Z,4.28
2022-12-12T02:36:40.702Z,5.00
2022-12-12T02:39:14.793Z,4.45
2022-12-12T02:41:55.561Z,4.18
2022-12-12T02:44:34.251Z,4.22
2022-12-12T02:47:21.619Z,4.13
2022-12-12T02:49:57.852Z,4.55
2022-12-12T02:52:26.249Z,4.78
2022-12-12T02:54:54.492Z,5.32
2022-12-12T02:57:25.372Z,4.68
2022-12-12T02:59:58.513Z,4.63
2022-12-12T03:02:50.261Z,4.35
2022-12-12T03:05:48.165Z,5.95
2022-12-12T03:08:34.223Z,3.92
2022-12-12T03:11:17.453Z,4.65
2022-12-12T03:13:48.257Z,4.70
2022-12-12T03:16:32.942Z,4.70
2022-12-12T03:19:17.666Z,5.88
2022-12-12T03:22:24.833Z,7.07
2022-12-12T03:25:03.724Z,7.10
2022-12-12T03:27:43.473Z,7.22
2022-12-12T03:30:18.083Z,6.63
2022-12-12T03:33:17.052Z,6.97
2022-12-12T03:35:50.503Z,6.75
2022-12-12T03:38:27.103Z,6.45
2022-12-12T03:41:02.103Z,5.55
2022-12-12T03:43:35.813Z,6.10
2022-12-12T03:49:07.924Z,6.22
2022-12-12T03:51:48.506Z,5.55
2022-12-12T03:55:15.850Z,6.47
2022-12-12T03:58:00.303Z,6.07
2022-12-12T04:00:32.692Z,5.93
2022-12-12T04:03:11.107Z,6.50
2022-12-12T04:06:25.982Z,6.72
2022-12-12T04:09:22.036Z,6.72
2022-12-12T04:12:38.605Z,7.03
2022-12-12T04:15:44.605Z,7.15
2022-12-12T04:18:36.542Z,8.40
2022-12-12T04:21:57.804Z,8.07
2022-12-12T04:24:39.311Z,8.40
2022-12-12T04:27:29.281Z,9.65
2022-12-12T04:30:09.793Z,8.82
2022-12-12T04:32:53.212Z,10.35
2022-12-12T04:35:28.634Z,8.90
2022-12-12T04:38:03.882Z,8.70
2022-12-12T04:40:39.471Z,8.98
2022-12-12T04:43:12.644Z,9.68
2022-12-12T04:45:48.612Z,10.23
2022-12-12T04:48:21.413Z,10.45
2022-12-12T04:50:53.716Z,9.40
2022-12-12T04:53:30.273Z,9.35
2022-12-12T04:56:05.824Z,9.00
2022-12-12T05:01:09.324Z,8.95
2022-12-12T05:03:59.381Z,8.40
2022-12-12T05:06:38.053Z,8.75
2022-12-12T05:09:07.994Z,8.95
2022-12-12T05:11:38.943Z,9.63
2022-12-12T05:14:09.853Z,9.27
2022-12-12T05:16:53.220Z,8.73
2022-12-12T05:19:21.282Z,8.95
2022-12-12T05:21:50.743Z,8.32
2022-12-12T05:24:18.726Z,8.68
2022-12-12T05:26:47.243Z,8.07
2022-12-12T05:29:15.203Z,6.88
2022-12-12T05:31:44.532Z,7.20
2022-12-12T05:34:13.192Z,6.95
2022-12-12T05:36:41.737Z,8.45
2022-12-12T05:39:09.721Z,7.70
2022-12-12T05:41:38.152Z,8.10
2022-12-12T05:44:06.202Z,7.47
2022-12-12T05:46:34.496Z,7.47
2022-12-12T05:49:02.451Z,8.27
2022-12-12T05:51:31.922Z,7.93
2022-12-12T05:54:01.733Z,9.02
2022-12-12T05:56:30.100Z,8.25
2022-12-12T05:58:58.202Z,8.27
2022-12-12T06:01:26.593Z,9.00
2022-12-12T06:03:54.643Z,9.95
2022-12-12T06:06:24.364Z,9.50
2022-12-12T06:08:52.402Z,9.73
2022-12-12T06:11:20.702Z,10.20
2022-12-12T06:13:48.771Z,8.65
2022-12-12T06:16:19.429Z,10.18
2022-12-12T06:18:52.572Z,9.45
2022-12-12T06:21:22.180Z,9.95
2022-12-12T06:23:50.421Z,9.77
2022-12-12T06:26:20.131Z,9.60
2022-12-12T06:28:48.166Z,8.90
2022-12-12T06:31:17.239Z,10.80
2022-12-12T06:33:45.368Z,10.85
2022-12-12T06:36:26.563Z,9.73
2022-12-12T06:38:59.454Z,11.13
2022-12-12T06:41:31.312Z,9.23
2022-12-12T06:43:59.870Z,8.90
2022-12-12T06:46:30.909Z,10.05
2022-12-12T06:48:59.359Z,9.43
2022-12-12T06:51:36.539Z,8.70
2022-12-12T06:54:05.145Z,9.30
2022-12-12T06:56:33.453Z,7.78
2022-12-12T06:59:01.419Z,8.82
2022-12-12T07:01:30.998Z,9.15
2022-12-12T07:03:59.963Z,9.23
2022-12-12T07:06:28.957Z,10.70
2022-12-12T07:08:59.221Z,10.13
2022-12-12T07:11:28.579Z,8.43
2022-12-12T07:13:58.155Z,8.65
2022-12-12T07:16:26.599Z,8.63
2022-12-12T07:18:54.536Z,9.23
2022-12-12T07:21:22.934Z,7.55
2022-12-12T07:23:50.912Z,6.78
2022-12-12T07:26:22.833Z,6.88
2022-12-12T07:28:51.805Z,7.80
2022-12-12T07:31:40.366Z,8.27
2022-12-12T07:34:15.035Z,8.05
2022-12-12T07:36:43.601Z,7.22
2022-12-12T07:39:15.878Z,7.78
2022-12-12T07:41:47.256Z,7.43
2022-12-12T07:44:20.873Z,7.63
2022-12-12T07:46:50.314Z,7.47
2022-12-12T07:49:18.511Z,7.18
2022-12-12T07:51:49.240Z,7.38
2022-12-12T07:54:17.933Z,7.00
2022-12-12T07:56:46.406Z,7.53
2022-12-12T07:59:14.433Z,6.70
2022-12-12T08:01:43.025Z,7.32
2022-12-12T08:04:11.153Z,7.00
2022-12-12T08:06:39.574Z,6.55
2022-12-12T08:09:07.587Z,6.97
2022-12-12T08:11:40.742Z,7.13
2022-12-12T08:14:14.334Z,7.53
2022-12-12T08:16:43.804Z,7.70
2022-12-12T08:19:13.243Z,7.32
2022-12-12T08:21:43.435Z,6.95
2022-12-12T08:24:15.832Z,8.52
2022-12-12T08:26:45.483Z,6.90
2022-12-12T08:29:13.714Z,8.60
2022-12-12T08:31:45.905Z,8.50
2022-12-12T08:34:14.183Z,7.93
2022-12-12T08:36:44.344Z,8.38
2022-12-12T08:39:16.434Z,7.25
2022-12-12T08:41:49.053Z,9.43
2022-12-12T08:44:19.625Z,10.45
2022-12-12T08:46:51.556Z,8.93
2022-12-12T08:49:20.593Z,8.55
2022-12-12T08:51:51.695Z,8.73
2022-12-12T08:54:20.543Z,9.35
2022-12-12T08:56:48.831Z,9.45
2022-12-12T08:59:16.931Z,8.73
2022-12-12T09:01:45.425Z,9.82
2022-12-12T09:04:13.792Z,9.35
2022-12-12T09:06:45.984Z,9.25
2022-12-12T09:09:14.237Z,10.27
2022-12-12T09:11:42.586Z,12.45
2022-12-12T09:14:11.620Z,10.88
2022-12-12T09:16:40.169Z,12.70
2022-12-12T09:19:08.284Z,10.75
2022-12-12T09:21:37.903Z,11.52
2022-12-12T09:24:06.296Z,12.02
2022-12-12T09:26:34.946Z,11.88
2022-12-12T09:29:03.503Z,10.70
2022-12-12T09:31:33.066Z,12.52
2022-12-12T09:34:01.034Z,13.20
2022-12-12T09:36:29.676Z,12.18
2022-12-12T09:38:57.796Z,12.93
2022-12-12T09:41:30.851Z,14.75
2022-12-12T09:44:16.134Z,17.73
2022-12-12T09:46:56.653Z,16.58
2022-12-12T09:49:46.997Z,17.85
2022-12-12T09:52:27.721Z,16.48
2022-12-12T09:55:15.664Z,15.63
2022-12-12T09:57:54.975Z,14.30
2022-12-12T10:00:23.134Z,14.68
2022-12-12T10:03:04.070Z,15.27
2022-12-12T10:05:41.668Z,14.27
2022-12-12T10:08:46.477Z,14.52
2022-12-12T10:11:40.129Z,15.90
2022-12-12T10:14:12.275Z,14.40
2022-12-12T10:16:41.554Z,13.48
2022-12-12T10:19:29.889Z,14.00
2022-12-12T10:22:06.451Z,13.75
2022-12-12T10:24:52.915Z,13.95
2022-12-12T10:27:25.053Z,14.88
2022-12-12T10:29:54.549Z,14.65
2022-12-12T10:32:45.244Z,13.23
2022-12-12T10:35:26.398Z,13.82
2022-12-12T10:38:15.056Z,12.80
2022-12-12T10:41:05.687Z,11.80
2022-12-12T10:44:00.815Z,11.98
2022-12-12T10:46:39.602Z,12.13
2022-12-12T10:49:25.598Z,12.45
2022-12-12T10:51:57.970Z,12.57
2022-12-12T10:54:28.653Z,14.00
2022-12-12T10:57:06.105Z,12.57
2022-12-12T10:59:45.595Z,12.95
2022-12-12T11:02:28.780Z,11.70
2022-12-12T11:05:06.548Z,11.68
2022-12-12T11:07:47.772Z,13.60
2022-12-12T11:10:23.382Z,12.75
2022-12-12T11:13:16.644Z,13.45
2022-12-12T11:15:56.927Z,11.20
2022-12-12T11:18:26.214Z,13.02
2022-12-12T11:21:13.723Z,11.95
2022-12-12T11:23:50.814Z,11.70
2022-12-12T11:26:21.126Z,12.43
2022-12-12T11:28:59.972Z,12.95
2022-12-12T11:31:32.933Z,12.90
2022-12-12T11:34:07.762Z,12.45
2022-12-12T11:36:42.034Z,13.65
2022-12-12T11:39:25.176Z,12.73
2022-12-12T11:42:19.697Z,13.13
2022-12-12T11:45:17.774Z,11.80
2022-12-12T11:47:47.645Z,11.70
2022-12-12T11:50:26.095Z,13.43
2022-12-12T11:52:56.783Z,14.07
2022-12-12T11:55:39.946Z,14.25
2022-12-12T11:58:22.916Z,13.90
2022-12-12T12:01:03.479Z,13.37
2022-12-12T12:03:49.478Z,13.93
2022-12-12T12:06:56.704Z,14.93
2022-12-12T12:09:48.852Z,13.98
2022-12-12T12:12:35.609Z,14.07
2022-12-12T12:15:22.621Z,14.60
2022-12-12T12:18:28.440Z,13.80
2022-12-12T12:21:22.616Z,13.82
2022-12-12T12:24:06.345Z,12.65
2022-12-12T12:26:47.852Z,13.40
2022-12-12T12:29:39.322Z,12.77
2022-12-12T12:32:26.152Z,14.18
2022-12-12T12:35:19.984Z,12.30
2022-12-12T12:37:54.964Z,13.70
2022-12-12T12:40:56.383Z,14.15
2022-12-12T12:44:18.878Z,14.35
2022-12-12T12:47:04.955Z,15.38
2022-12-12T12:49:55.944Z,15.93
2022-12-12T12:52:55.039Z,13.95
2022-12-12T12:55:51.765Z,15.43
2022-12-12T12:58:28.554Z,14.68
2022-12-12T13:01:15.006Z,16.67
2022-12-12T13:03:55.325Z,14.10
2022-12-12T13:06:43.654Z,13.35
2022-12-12T13:09:39.114Z,14.82
2022-12-12T13:12:25.953Z,12.75
2022-12-12T13:15:01.788Z,13.73
2022-12-12T13:17:52.115Z,13.27
2022-12-12T13:20:25.504Z,14.02
2022-12-12T13:23:20.764Z,14.10
2022-12-12T13:26:12.326Z,14.18
2022-12-12T13:28:54.384Z,14.02
2022-12-12T13:31:47.747Z,14.20
2022-12-12T13:34:19.725Z,13.45
2022-12-12T13:36:51.544Z,12.82
2022-12-12T13:39:39.034Z,12.40
2022-12-12T13:42:10.594Z,13.27
2022-12-12T13:44:48.488Z,12.48
2022-12-12T13:47:18.046Z,13.40
2022-12-12T13:49:48.420Z,14.70
2022-12-12T13:52:43.793Z,16.25
2022-12-12T13:55:11.665Z,14.48
2022-12-12T13:58:03.026Z,14.50
2022-12-12T14:00:33.344Z,14.82
2022-12-12T14:03:08.067Z,14.45
2022-12-12T14:05:46.676Z,13.38
2022-12-12T14:08:14.948Z,15.55
2022-12-12T14:10:56.276Z,13.32
2022-12-12T14:13:24.624Z,11.93
2022-12-12T14:15:58.555Z,12.90
2022-12-12T14:18:31.628Z,11.85
2022-12-12T14:21:04.759Z,12.13
2022-12-12T14:23:36.424Z,13.68
2022-12-12T14:26:27.509Z,16.85
2022-12-12T14:29:17.345Z,14.85
2022-12-12T14:32:06.585Z,14.30
2022-12-12T14:34:35.454Z,13.77
2022-12-12T14:37:12.494Z,14.57
2022-12-12T14:39:50.515Z,15.40
2022-12-12T14:43:16.406Z,13.98
2022-12-12T14:45:49.723Z,13.30
2022-12-12T14:48:36.642Z,16.98
2022-12-12T14:51:16.602Z,15.48
2022-12-12T14:53:50.889Z,16.15
2022-12-12T14:56:21.064Z,15.60
2022-12-12T14:58:59.778Z,16.13
2022-12-12T15:01:42.796Z,14.90
2022-12-12T15:04:20.100Z,17.27
2022-12-12T15:06:56.243Z,16.73
2022-12-12T15:09:35.976Z,16.23
2022-12-12T15:12:10.455Z,15.00
2022-12-12T15:14:41.943Z,15.98
2022-12-12T15:17:19.896Z,16.08
2022-12-12T15:19:59.364Z,15.88
2022-12-12T15:22:37.497Z,16.25
2022-12-12T15:25:33.437Z,16.65
2022-12-12T15:28:03.465Z,15.10
2022-12-12T15:30:42.397Z,18.08
2022-12-12T15:33:18.042Z,42.75
2022-12-12T15:36:05.505Z,41.30
2022-12-12T15:38:34.846Z,41.38
2022-12-12T15:41:12.795Z,25.60
2022-12-12T15:43:43.412Z,17.23
2022-12-12T15:46:15.971Z,16.92
2022-12-12T15:48:49.955Z,17.70
2022-12-12T15:51:24.645Z,16.52
2022-12-12T15:53:55.848Z,17.33
2022-12-12T15:56:29.699Z,17.27
2022-12-12T15:59:15.522Z,18.85
2022-12-12T16:01:43.975Z,17.65
2022-12-12T16:04:12.258Z,17.05
2022-12-12T16:06:45.742Z,17.70
2022-12-12T16:11:54.119Z,18.27
2022-12-12T16:14:43.279Z,19.63
2022-12-12T16:17:18.112Z,19.58
2022-12-12T16:20:03.418Z,21.17
2022-12-12T16:22:34.058Z,21.20
2022-12-12T16:25:24.722Z,21.25
2022-12-12T16:28:13.371Z,22.05
2022-12-12T16:30:43.806Z,19.92
2022-12-12T16:33:30.561Z,17.25
2022-12-12T16:36:01.318Z,16.65
2022-12-12T16:38:31.565Z,20.77
2022-12-12T16:41:05.779Z,16.73
2022-12-12T16:46:01.912Z,16.52
2022-12-12T16:48:36.412Z,17.70
2022-12-12T16:51:07.425Z,17.50
2022-12-12T16:53:38.271Z,17.15
2022-12-12T16:56:06.995Z,17.17
2022-12-12T16:58:35.085Z,17.75
2022-12-12T17:01:05.033Z,17.52
2022-12-12T17:03:33.159Z,17.33
2022-12-12T17:06:02.762Z,15.48
2022-12-12T17:08:30.775Z,17.33
2022-12-12T17:11:09.885Z,17.17
2022-12-12T17:13:48.504Z,16.42
2022-12-12T17:16:19.322Z,17.95
2022-12-12T17:18:49.589Z,17.05
2022-12-12T17:21:18.967Z,16.27
2022-12-12T17:23:47.057Z,17.77
2022-12-12T17:26:15.566Z,20.35
2022-12-12T17:28:43.546Z,21.90
2022-12-12T17:31:13.156Z,20.65
2022-12-12T17:33:49.909Z,20.58
2022-12-12T17:36:20.015Z,20.10
2022-12-12T17:38:48.993Z,18.90
2022-12-12T17:41:17.663Z,18.00
2022-12-12T17:43:49.327Z,18.15
2022-12-12T17:46:20.674Z,19.80
2022-12-12T17:48:48.931Z,19.05
2022-12-12T17:51:21.378Z,17.23
2022-12-12T17:53:51.598Z,18.60
2022-12-12T17:56:23.580Z,20.05
2022-12-12T17:58:51.879Z,29.27
2022-12-12T18:01:29.360Z,27.23
2022-12-12T18:03:59.155Z,20.27
2022-12-12T18:06:31.799Z,18.55
2022-12-12T18:09:01.055Z,20.02
2022-12-12T18:11:33.317Z,19.25
2022-12-12T18:14:04.276Z,18.50
2022-12-12T18:16:34.384Z,92.88
2022-12-12T18:19:03.285Z,72.05
2022-12-12T18:24:24.833Z,18.58
2022-12-12T18:26:55.604Z,20.83
2022-12-12T18:29:25.074Z,26.42
2022-12-12T18:31:54.091Z,99.03
2022-12-12T18:34:23.493Z,26.38
2022-12-12T18:36:54.085Z,20.25
2022-12-12T18:39:22.258Z,20.42
2022-12-12T18:41:52.306Z,19.50
2022-12-12T18:44:20.473Z,34.75
2022-12-12T18:46:51.110Z,24.20
2022-12-12T18:49:19.423Z,22.38
2022-12-12T18:51:47.930Z,21.90
2022-12-12T18:54:16.783Z,18.80
2022-12-12T18:56:47.166Z,19.00
2022-12-12T18:59:16.036Z,25.27
2022-12-12T19:01:45.287Z,43.45
2022-12-12T19:04:17.730Z,27.10
2022-12-12T19:06:53.313Z,22.95
2022-12-12T19:09:21.952Z,20.60
2022-12-12T19:11:54.289Z,25.83
2022-12-12T19:14:35.709Z,25.77
2022-12-12T19:17:09.367Z,22.83
2022-12-12T19:19:37.611Z,19.73
2022-12-12T19:22:24.813Z,20.67
2022-12-12T19:25:03.698Z,30.65
2022-12-12T19:27:32.178Z,21.13
2022-12-12T19:30:00.155Z,19.15
2022-12-12T19:32:29.027Z,20.27
2022-12-12T19:34:57.192Z,22.15
2022-12-12T19:37:26.440Z,38.95
2022-12-12T19:39:54.745Z,24.00
2022-12-12T19:42:23.573Z,22.38
2022-12-12T19:44:51.654Z,20.70
2022-12-12T19:47:20.131Z,21.65
2022-12-12T19:49:49.891Z,19.17
2022-12-12T19:52:20.137Z,17.52
2022-12-12T19:54:48.088Z,20.58
2022-12-12T19:57:16.452Z,20.58
2022-12-12T19:59:44.573Z,19.27
2022-12-12T20:02:13.485Z,17.00
2022-12-12T20:04:41.877Z,17.55
2022-12-12T20:07:10.322Z,17.52
2022-12-12T20:09:38.457Z,17.73
2022-12-12T20:12:06.862Z,19.02
2022-12-12T20:14:37.195Z,15.57
2022-12-12T20:17:05.578Z,17.40
2022-12-12T20:19:33.443Z,17.35
2022-12-12T20:22:03.015Z,15.55
2022-12-12T20:24:34.090Z,17.90
2022-12-12T20:27:04.007Z,15.82
2022-12-12T20:29:32.844Z,17.88
2022-12-12T20:32:01.893Z,16.00
2022-12-12T20:34:30.483Z,15.25
2022-12-12T20:36:58.995Z,13.82
2022-12-12T20:39:27.054Z,16.58
2022-12-12T20:41:57.337Z,16.92
2022-12-12T20:44:26.021Z,17.73
2022-12-12T20:46:56.133Z,16.63
2022-12-12T20:49:25.021Z,17.08
2022-12-12T20:51:55.919Z,16.98
2022-12-12T20:54:27.824Z,15.98
2022-12-12T20:56:58.567Z,16.67
2022-12-12T20:59:27.217Z,15.07
2022-12-12T21:01:55.675Z,18.17
2022-12-12T21:04:24.593Z,16.63
2022-12-12T21:06:54.485Z,13.85
2022-12-12T21:09:26.446Z,15.30
2022-12-12T21:11:58.641Z,14.52
2022-12-12T21:14:28.339Z,17.33
2022-12-12T21:16:57.244Z,16.42
2022-12-12T21:19:25.326Z,14.52
2022-12-12T21:21:54.905Z,14.85
2022-12-12T21:24:23.042Z,15.30
2022-12-12T21:26:51.474Z,15.75
2022-12-12T21:29:20.063Z,16.15
2022-12-12T21:31:52.026Z,16.45
2022-12-12T21:34:23.131Z,17.92
2022-12-12T21:36:55.908Z,19.88
2022-12-12T21:39:27.217Z,16.63
2022-12-12T21:41:56.355Z,16.13
2022-12-12T21:44:25.256Z,15.88
2022-12-12T21:46:53.819Z,16.20
2022-12-12T21:49:28.388Z,16.10
2022-12-12T21:52:10.178Z,16.15
2022-12-12T21:54:38.449Z,14.05
2022-12-12T21:57:09.645Z,15.38
2022-12-12T21:59:39.068Z,14.38
2022-12-12T22:02:07.953Z,16.20
2022-12-12T22:04:36.094Z,14.13
2022-12-12T22:07:04.681Z,14.48
2022-12-12T22:09:32.642Z,13.70
2022-12-12T22:12:03.517Z,14.52
2022-12-12T22:14:34.403Z,12.68
2022-12-12T22:17:04.652Z,12.93
2022-12-12T22:19:32.987Z,12.68
2022-12-12T22:22:01.393Z,11.65
2022-12-12T22:24:29.699Z,12.43
2022-12-12T22:26:59.677Z,13.05
2022-12-12T22:29:27.738Z,14.70
2022-12-12T22:31:57.122Z,15.20
2022-12-12T22:34:25.696Z,13.02
2022-12-12T22:36:54.318Z,12.68
2022-12-12T22:39:25.423Z,13.10
2022-12-12T22:41:57.182Z,14.13
2022-12-12T22:44:26.426Z,12.63
2022-12-12T22:46:56.570Z,14.20
2022-12-12T22:49:26.541Z,13.25
2022-12-12T22:51:57.315Z,14.73
2022-12-12T22:54:26.102Z,14.00
2022-12-12T22:56:55.303Z,13.68
2022-12-12T22:59:25.501Z,12.35
2022-12-12T23:01:53.758Z,13.43
2022-12-12T23:04:21.969Z,11.68
2022-12-12T23:06:50.521Z,10.95
2022-12-12T23:09:22.079Z,13.18
2022-12-12T23:11:50.690Z,12.40
2022-12-12T23:14:21.966Z,12.10
2022-12-12T23:16:52.029Z,11.93
2022-12-12T23:19:25.937Z,10.80
2022-12-12T23:21:54.420Z,11.55
2022-12-12T23:24:23.092Z,11.80
2022-12-12T23:26:54.971Z,10.18
2022-12-12T23:29:23.524Z,10.98
2022-12-12T23:31:53.475Z,10.88
2022-12-12T23:34:25.383Z,11.50
2022-12-12T23:36:56.897Z,10.32
2022-12-12T23:39:27.681Z,10.60
2022-12-12T23:41:56.091Z,11.23
2022-12-12T23:44:24.939Z,10.75
2022-12-12T23:46:54.407Z,10.80
2022-12-12T23:49:26.645Z,10.50
2022-12-12T23:52:00.232Z,10.70
2022-12-12T23:54:35.203Z,10.68
2022-12-12T23:57:03.560Z,11.73
2022-12-12T23:59:31.674Z,11.15
